Time;durP1;ratioP1;P1;durP2;ratioP2;P2;SDS_P1;SDS_P2;PMS_P1;PMS_P2;Temp;Humidity;BMP_temperature;BMP_pressure;BME280_temperature;BME280_humidity;BME280_pressure;Samples;Min_cycle;Max_cycle;Signal;HPM_P1;HPM_P2
2021/12/19 00:01:09;;;;;;;46.53;13.93;;;;;;;;;;5058057;28;20119;-74
2021/12/19 00:11:15;;;;;;;48.27;14.63;;;;;;;;;;5079197;28;20044;-74
2021/12/19 00:13:41;;;;;;;36.03;12.70;;;;;;;;;;5062759;28;20052;-74
2021/12/19 00:16:07;;;;;;;44.23;13.57;;;;;;;;;;5062727;28;20456;-75
2021/12/19 00:18:34;;;;;;;46.20;12.83;;;;;;;;;;5065203;28;20060;-74
2021/12/19 00:21:00;;;;;;;32.50;10.07;;;;;;;;;;5062022;28;20106;-74
2021/12/19 00:23:26;;;;;;;40.43;12.07;;;;;;;;;;5060498;28;20048;-74
2021/12/19 00:25:52;;;;;;;35.37;11.70;;;;;;;;;;5077809;28;20044;-74
2021/12/19 00:28:18;;;;;;;32.47;9.53;;;;;;;;;;5062250;28;20558;-74
2021/12/19 00:30:44;;;;;;;29.93;9.60;;;;;;;;;;5060345;28;20133;-74
2021/12/19 00:33:11;;;;;;;33.50;10.43;;;;;;;;;;5060690;28;20071;-74
2021/12/19 00:35:37;;;;;;;34.00;10.27;;;;;;;;;;5077473;28;20502;-74
2021/12/19 00:38:03;;;;;;;36.73;11.30;;;;;;;;;;5059934;28;20045;-74
2021/12/19 00:40:30;;;;;;;32.20;10.00;;;;;;;;;;5063442;28;20047;-74
2021/12/19 00:43:05;;;;;;;60.07;13.67;;;;;;;;;;5075103;28;20060;-73
2021/12/19 00:45:34;;;;;;;40.67;11.17;;;;;;;;;;5061566;28;20529;-74
2021/12/19 00:48:01;;;;;;;31.63;10.37;;;;;;;;;;5057617;28;20438;-74
2021/12/19 00:50:27;;;;;;;36.67;10.27;;;;;;;;;;5062042;28;20036;-74
2021/12/19 00:52:53;;;;;;;32.63;10.30;;;;;;;;;;5076997;28;20048;-74
2021/12/19 00:55:21;;;;;;;32.63;10.03;;;;;;;;;;5059034;28;20040;-74
2021/12/19 00:57:47;;;;;;;36.27;10.73;;;;;;;;;;5056817;28;20044;-70
2021/12/19 01:00:15;;;;;;;28.60;9.37;;;;;;;;;;5080097;28;20179;-68
2021/12/19 01:02:41;;;;;;;45.73;11.97;;;;;;;;;;5079664;28;20559;-70
2021/12/19 01:05:08;;;;;;;35.23;10.13;;;;;;;;;;5079337;28;20087;-70
2021/12/19 01:07:34;;;;;;;35.70;10.37;;;;;;;;;;5081396;28;20051;-70
2021/12/19 01:10:00;;;;;;;25.73;9.17;;;;;;;;;;5080487;28;20505;-70
2021/12/19 01:12:27;;;;;;;37.40;10.70;;;;;;;;;;5080957;28;20036;-70
2021/12/19 01:14:53;;;;;;;54.93;12.17;;;;;;;;;;5057075;28;20047;-70
2021/12/19 01:17:19;;;;;;;47.67;10.73;;;;;;;;;;5076580;28;20040;-70
2021/12/19 01:19:45;;;;;;;32.37;9.43;;;;;;;;;;5076821;28;20452;-70
2021/12/19 01:22:12;;;;;;;27.10;8.90;;;;;;;;;;5043696;28;20052;-71
2021/12/19 01:24:38;;;;;;;35.47;10.53;;;;;;;;;;5080370;28;20762;-70
2021/12/19 01:27:05;;;;;;;35.07;10.30;;;;;;;;;;5068614;28;20486;-70
2021/12/19 01:29:31;;;;;;;26.77;8.87;;;;;;;;;;5082313;28;20405;-70
2021/12/19 01:31:57;;;;;;;26.47;9.37;;;;;;;;;;5069511;28;20051;-70
2021/12/19 01:34:23;;;;;;;36.00;9.80;;;;;;;;;;5088463;28;20040;-70
2021/12/19 01:36:49;;;;;;;23.67;8.50;;;;;;;;;;5071596;28;20076;-70
2021/12/19 01:39:15;;;;;;;23.13;8.10;;;;;;;;;;5071070;28;20090;-70
2021/12/19 01:41:52;;;;;;;25.07;8.30;;;;;;;;;;5089776;28;20090;-70
2021/12/19 01:44:18;;;;;;;21.73;7.40;;;;;;;;;;5071500;28;20405;-70
2021/12/19 01:46:46;;;;;;;20.27;6.90;;;;;;;;;;5089505;28;20036;-70
2021/12/19 01:49:12;;;;;;;16.73;6.30;;;;;;;;;;5088684;28;20056;-70
2021/12/19 01:51:38;;;;;;;16.70;6.27;;;;;;;;;;5070581;28;20414;-70
2021/12/19 01:54:05;;;;;;;19.13;6.93;;;;;;;;;;5069171;28;20036;-70
2021/12/19 01:56:32;;;;;;;25.37;8.03;;;;;;;;;;5067858;28;20048;-70
2021/12/19 01:58:58;;;;;;;18.80;6.67;;;;;;;;;;5069045;28;20110;-69
2021/12/19 02:01:24;;;;;;;11.13;4.03;;;;;;;;;;5069160;28;20087;-70
2021/12/19 02:03:50;;;;;;;12.33;4.07;;;;;;;;;;5067921;28;20098;-70
2021/12/19 02:06:16;;;;;;;6.70;3.10;;;;;;;;;;5069369;28;20154;-70
2021/12/19 02:08:43;;;;;;;8.73;3.53;;;;;;;;;;5069222;28;20052;-70
2021/12/19 02:11:09;;;;;;;7.63;3.00;;;;;;;;;;5068941;28;20048;-70
2021/12/19 02:13:35;;;;;;;9.90;3.70;;;;;;;;;;5071307;28;20138;-70
2021/12/19 02:16:01;;;;;;;11.83;3.60;;;;;;;;;;5089039;28;20048;-70
2021/12/19 02:18:27;;;;;;;9.60;3.80;;;;;;;;;;5072522;28;20135;-70
2021/12/19 02:20:55;;;;;;;9.50;3.80;;;;;;;;;;5069007;28;20678;-70
2021/12/19 02:23:22;;;;;;;9.23;3.27;;;;;;;;;;5067628;28;20128;-70
2021/12/19 02:25:48;;;;;;;7.00;2.63;;;;;;;;;;5071470;28;20044;-70
2021/12/19 02:28:14;;;;;;;7.63;3.00;;;;;;;;;;5072213;28;20498;-70
2021/12/19 02:30:40;;;;;;;6.83;2.13;;;;;;;;;;5072586;28;20044;-70
2021/12/19 02:33:13;;;;;;;4.30;2.23;;;;;;;;;;5071653;28;20076;-70
2021/12/19 02:35:42;;;;;;;4.78;1.85;;;;;;;;;;5072332;28;20055;-70
2021/12/19 02:49:07;;;;;;;10.27;3.33;;;;;;;;;;5072330;28;20052;-70
2021/12/19 02:51:35;;;;;;;14.43;4.30;;;;;;;;;;5071730;28;20154;-70
2021/12/19 02:54:01;;;;;;;20.67;4.23;;;;;;;;;;5071971;28;20105;-70
2021/12/19 02:56:28;;;;;;;7.87;2.87;;;;;;;;;;5072658;28;20078;-70
2021/12/19 02:58:54;;;;;;;11.27;3.23;;;;;;;;;;5071507;28;20502;-70
2021/12/19 03:01:20;;;;;;;9.63;2.90;;;;;;;;;;5070877;28;20048;-70
2021/12/19 03:03:47;;;;;;;8.97;2.70;;;;;;;;;;5070874;28;20491;-70
2021/12/19 03:06:13;;;;;;;8.87;2.63;;;;;;;;;;5071229;28;20494;-70
2021/12/19 03:08:46;;;;;;;7.43;2.37;;;;;;;;;;5088636;28;20044;-70
2021/12/19 03:11:47;;;;;;;6.05;2.40;;;;;;;;;;5074611;28;20052;-70
2021/12/19 03:19:30;;;;;;;4.97;1.80;;;;;;;;;;5074069;28;20059;-70
2021/12/19 03:21:56;;;;;;;8.00;2.10;;;;;;;;;;5091914;28;20398;-70
2021/12/19 03:24:22;;;;;;;5.53;2.03;;;;;;;;;;5074375;28;20044;-70
2021/12/19 03:26:48;;;;;;;8.50;2.23;;;;;;;;;;5091630;28;20054;-70
2021/12/19 03:29:14;;;;;;;8.20;2.37;;;;;;;;;;5074154;28;20044;-70
2021/12/19 03:31:40;;;;;;;9.37;2.33;;;;;;;;;;5057178;28;20139;-70
2021/12/19 03:34:06;;;;;;;6.63;2.40;;;;;;;;;;5075153;28;20056;-70
2021/12/19 03:36:32;;;;;;;8.70;2.07;;;;;;;;;;5052829;28;20079;-70
2021/12/19 03:39:01;;;;;;;13.13;2.97;;;;;;;;;;5053963;28;20040;-70
2021/12/19 03:41:34;;;;;;;11.97;3.33;;;;;;;;;;5053432;28;20086;-70
2021/12/19 03:44:04;;;;;;;9.77;2.53;;;;;;;;;;5053260;28;20087;-71
2021/12/19 03:46:31;;;;;;;14.60;3.23;;;;;;;;;;5053882;28;20158;-70
2021/12/19 03:48:57;;;;;;;7.67;2.70;;;;;;;;;;5053635;28;20127;-70
2021/12/19 03:51:23;;;;;;;12.83;3.30;;;;;;;;;;5053089;28;20044;-70
2021/12/19 03:53:49;;;;;;;7.67;2.70;;;;;;;;;;5052664;28;20048;-70
2021/12/19 03:56:15;;;;;;;6.70;2.60;;;;;;;;;;5053564;28;20040;-70
2021/12/19 03:58:42;;;;;;;10.37;2.60;;;;;;;;;;5053019;28;20094;-70
2021/12/19 04:01:09;;;;;;;6.30;2.47;;;;;;;;;;5062072;28;20044;-70
2021/12/19 04:03:36;;;;;;;7.23;2.40;;;;;;;;;;5073298;28;20043;-70
2021/12/19 04:06:02;;;;;;;6.83;2.40;;;;;;;;;;5091750;28;20044;-70
2021/12/19 04:08:28;;;;;;;6.17;2.37;;;;;;;;;;5091336;28;20048;-70
2021/12/19 04:10:54;;;;;;;7.30;2.53;;;;;;;;;;5073285;28;20044;-70
2021/12/19 04:13:21;;;;;;;9.13;2.50;;;;;;;;;;5060613;28;20083;-70
2021/12/19 04:15:50;;;;;;;7.57;2.20;;;;;;;;;;5053089;28;20468;-70
2021/12/19 04:18:16;;;;;;;8.70;1.93;;;;;;;;;;5060917;28;20048;-70
2021/12/19 04:20:42;;;;;;;4.43;1.50;;;;;;;;;;5072627;28;20089;-70
2021/12/19 04:23:09;;;;;;;4.87;1.60;;;;;;;;;;5068152;28;20127;-70
2021/12/19 04:25:35;;;;;;;4.57;1.50;;;;;;;;;;5055448;28;20047;-70
2021/12/19 04:28:01;;;;;;;4.17;1.60;;;;;;;;;;5060198;28;20040;-70
2021/12/19 04:30:27;;;;;;;8.57;2.07;;;;;;;;;;5067462;28;20036;-70
2021/12/19 04:33:03;;;;;;;7.37;2.30;;;;;;;;;;5059333;28;20093;-70
2021/12/19 04:35:32;;;;;;;6.50;2.03;;;;;;;;;;5087958;28;20055;-70
2021/12/19 04:57:25;;;;;;;4.23;1.20;;;;;;;;;;5050402;28;20379;-70
2021/12/19 04:59:59;;;;;;;4.80;1.20;;;;;;;;;;5071799;28;20123;-70
2021/12/19 05:05:25;;;;;;;3.07;1.10;;;;;;;;;;5062997;28;20055;-70
2021/12/19 05:16:22;;;;;;;4.37;0.97;;;;;;;;;;5080621;28;20048;-70
2021/12/19 05:18:52;;;;;;;6.70;1.40;;;;;;;;;;5069385;28;20048;-70
2021/12/19 05:21:23;;;;;;;3.73;1.10;;;;;;;;;;5056556;28;20166;-70
2021/12/19 05:24:05;;;;;;;6.00;1.07;;;;;;;;;;5069675;28;20048;-70
2021/12/19 05:26:31;;;;;;;3.57;1.10;;;;;;;;;;5051303;28;20052;-70
2021/12/19 05:28:57;;;;;;;3.73;1.07;;;;;;;;;;5056428;28;20150;-70
2021/12/19 05:31:23;;;;;;;7.03;1.20;;;;;;;;;;5054486;28;20036;-70
2021/12/19 05:33:49;;;;;;;5.00;1.40;;;;;;;;;;5069894;28;20044;-71
2021/12/19 05:47:37;;;;;;;7.27;1.33;;;;;;;;;;4939506;28;20031;-71
2021/12/19 05:50:06;;;;;;;8.40;1.60;;;;;;;;;;4991478;28;20433;-71
2021/12/19 05:52:32;;;;;;;5.70;1.50;;;;;;;;;;5033595;28;20565;-71
2021/12/19 05:54:58;;;;;;;5.17;1.70;;;;;;;;;;5088229;28;20062;-71
2021/12/19 05:57:24;;;;;;;8.07;1.87;;;;;;;;;;5070822;28;20044;-71
2021/12/19 05:59:51;;;;;;;5.30;1.67;;;;;;;;;;5070633;28;20148;-71
2021/12/19 06:02:17;;;;;;;3.50;1.50;;;;;;;;;;5058216;28;20040;-71
2021/12/19 06:04:43;;;;;;;7.37;2.20;;;;;;;;;;5080684;28;20418;-71
2021/12/19 06:07:09;;;;;;;5.17;1.83;;;;;;;;;;5063820;28;20048;-71
2021/12/19 06:09:35;;;;;;;8.97;2.33;;;;;;;;;;5064616;28;20043;-71
2021/12/19 06:12:02;;;;;;;12.40;2.63;;;;;;;;;;5081411;28;20048;-71
2021/12/19 06:14:32;;;;;;;89.60;12.97;;;;;;;;;;5062935;28;20821;-71
2021/12/19 06:16:59;;;;;;;103.97;12.13;;;;;;;;;;5062609;28;20048;-71
2021/12/19 06:19:25;;;;;;;48.50;7.70;;;;;;;;;;5065511;28;20044;-70
2021/12/19 06:21:51;;;;;;;13.33;3.80;;;;;;;;;;5082172;28;20036;-70
2021/12/19 06:24:17;;;;;;;14.63;4.03;;;;;;;;;;5072883;28;20040;-70
2021/12/19 06:26:43;;;;;;;13.30;4.00;;;;;;;;;;5066171;28;20040;-71
2021/12/19 06:29:09;;;;;;;22.03;4.97;;;;;;;;;;5061681;28;20041;-71
2021/12/19 06:31:35;;;;;;;18.17;4.87;;;;;;;;;;5061544;28;20055;-70
2021/12/19 06:34:01;;;;;;;69.90;11.83;;;;;;;;;;5069436;28;20048;-71
2021/12/19 06:36:27;;;;;;;27.53;5.53;;;;;;;;;;5066438;28;20463;-70
2021/12/19 06:38:53;;;;;;;32.43;7.37;;;;;;;;;;5066450;28;20419;-70
2021/12/19 06:41:20;;;;;;;14.83;5.20;;;;;;;;;;5064912;28;20075;-70
2021/12/19 06:43:46;;;;;;;15.93;5.53;;;;;;;;;;5067577;28;20052;-71
2021/12/19 06:46:13;;;;;;;23.87;5.40;;;;;;;;;;5058887;28;20036;-70
2021/12/19 06:48:39;;;;;;;31.23;7.13;;;;;;;;;;5054051;28;20059;-71
2021/12/19 06:51:05;;;;;;;23.97;6.53;;;;;;;;;;5069481;28;20147;-71
2021/12/19 06:53:31;;;;;;;20.20;6.00;;;;;;;;;;5065264;28;20083;-70
2021/12/19 06:55:58;;;;;;;26.40;7.27;;;;;;;;;;5078890;28;20506;-70
2021/12/19 06:58:24;;;;;;;37.43;8.60;;;;;;;;;;5065806;28;20043;-70
2021/12/19 07:00:50;;;;;;;32.73;7.90;;;;;;;;;;5062288;28;20051;-70
2021/12/19 07:03:16;;;;;;;33.40;9.10;;;;;;;;;;5062247;28;20167;-70
2021/12/19 07:05:43;;;;;;;29.17;9.23;;;;;;;;;;5061904;28;20051;-70
2021/12/19 07:08:09;;;;;;;25.10;9.53;;;;;;;;;;5068171;28;20040;-70
2021/12/19 07:10:35;;;;;;;36.30;10.27;;;;;;;;;;5055113;28;20684;-70
2021/12/19 07:13:01;;;;;;;36.83;10.17;;;;;;;;;;5067825;28;20043;-70
2021/12/19 07:15:29;;;;;;;40.63;11.77;;;;;;;;;;5073652;28;20044;-70
2021/12/19 07:17:58;;;;;;;34.03;10.73;;;;;;;;;;5063895;28;20056;-70
2021/12/19 07:20:24;;;;;;;38.40;12.50;;;;;;;;;;5086830;28;20583;-71
2021/12/19 07:22:50;;;;;;;47.67;13.63;;;;;;;;;;5074064;28;20416;-70
2021/12/19 07:25:16;;;;;;;44.47;12.40;;;;;;;;;;5066216;28;20040;-70
2021/12/19 07:27:42;;;;;;;44.77;12.90;;;;;;;;;;5082563;28;20048;-70
2021/12/19 07:30:08;;;;;;;53.87;14.00;;;;;;;;;;5068564;28;20032;-70
2021/12/19 07:32:36;;;;;;;47.83;13.33;;;;;;;;;;5070984;28;20044;-70
2021/12/19 07:35:02;;;;;;;51.37;13.43;;;;;;;;;;5060955;28;20048;-70
2021/12/19 07:37:28;;;;;;;50.13;14.27;;;;;;;;;;5073006;28;20133;-70
2021/12/19 07:40:03;;;;;;;48.93;14.27;;;;;;;;;;5063773;28;20076;-70
2021/12/19 07:42:29;;;;;;;47.13;13.27;;;;;;;;;;5074125;28;20413;-70
2021/12/19 07:44:55;;;;;;;49.73;13.20;;;;;;;;;;5090803;28;20036;-71
2021/12/19 07:47:21;;;;;;;46.83;13.20;;;;;;;;;;5091282;28;20071;-70
2021/12/19 07:49:47;;;;;;;99.07;19.87;;;;;;;;;;5091451;28;20079;-70
2021/12/19 07:52:13;;;;;;;46.30;12.97;;;;;;;;;;5090379;28;20105;-70
2021/12/19 07:54:39;;;;;;;46.50;14.10;;;;;;;;;;5088015;28;20047;-70
2021/12/19 07:57:05;;;;;;;40.53;11.93;;;;;;;;;;5065466;28;20041;-70
2021/12/19 07:59:31;;;;;;;47.53;12.63;;;;;;;;;;5088176;28;20102;-70
2021/12/19 08:01:57;;;;;;;37.73;12.07;;;;;;;;;;5084075;28;20115;-70
2021/12/19 08:04:23;;;;;;;52.00;13.33;;;;;;;;;;5072700;28;20888;-70
2021/12/19 08:06:49;;;;;;;43.87;12.13;;;;;;;;;;5088790;28;20040;-70
2021/12/19 08:09:24;;;;;;;52.13;14.20;;;;;;;;;;5062210;28;20122;-70
2021/12/19 08:11:51;;;;;;;38.43;11.30;;;;;;;;;;5063031;28;20333;-70
2021/12/19 08:14:17;;;;;;;59.83;13.77;;;;;;;;;;5070298;28;20052;-70
2021/12/19 08:16:44;;;;;;;35.77;11.27;;;;;;;;;;5062788;28;20049;-70
2021/12/19 08:19:11;;;;;;;34.30;10.83;;;;;;;;;;5061985;28;20045;-70
2021/12/19 08:21:37;;;;;;;33.87;10.37;;;;;;;;;;5063115;28;20049;-70
2021/12/19 08:24:09;;;;;;;34.63;8.83;;;;;;;;;;5058709;28;20044;-70
2021/12/19 08:26:36;;;;;;;19.67;6.33;;;;;;;;;;5065336;28;20041;-70
2021/12/19 08:29:02;;;;;;;29.93;7.00;;;;;;;;;;5042387;28;20040;-70
2021/12/19 08:31:28;;;;;;;29.87;7.00;;;;;;;;;;5074691;28;20198;-70
2021/12/19 08:33:54;;;;;;;27.60;6.80;;;;;;;;;;5062505;28;20123;-70
2021/12/19 08:36:20;;;;;;;30.10;7.17;;;;;;;;;;5065983;28;20052;-71
2021/12/19 08:38:47;;;;;;;26.77;6.93;;;;;;;;;;5053861;28;20180;-70
2021/12/19 08:41:13;;;;;;;25.70;7.43;;;;;;;;;;5066198;28;20044;-70
2021/12/19 08:43:39;;;;;;;23.40;7.87;;;;;;;;;;5064030;28;20040;-70
2021/12/19 08:46:08;;;;;;;24.57;7.57;;;;;;;;;;5062388;28;20040;-70
2021/12/19 08:48:34;;;;;;;33.60;7.70;;;;;;;;;;5064541;28;20406;-70
2021/12/19 08:51:01;;;;;;;26.40;7.97;;;;;;;;;;5065592;28;20051;-71
2021/12/19 08:53:27;;;;;;;29.50;8.50;;;;;;;;;;5060709;28;20041;-70
2021/12/19 08:55:53;;;;;;;140.47;23.30;;;;;;;;;;5060500;28;20054;-70
2021/12/19 08:58:19;;;;;;;37.60;8.30;;;;;;;;;;5064880;28;20045;-70
2021/12/19 09:00:45;;;;;;;21.90;7.13;;;;;;;;;;5058009;28;20036;-70
2021/12/19 09:03:11;;;;;;;29.53;7.47;;;;;;;;;;5056422;28;20049;-70
2021/12/19 09:05:37;;;;;;;27.10;7.50;;;;;;;;;;5060356;28;20120;-71
2021/12/19 09:08:03;;;;;;;22.07;7.83;;;;;;;;;;5059406;28;20079;-70
2021/12/19 09:10:29;;;;;;;23.40;6.83;;;;;;;;;;5056672;28;20590;-70
2021/12/19 09:12:55;;;;;;;31.63;7.27;;;;;;;;;;5052561;28;20084;-70
2021/12/19 09:15:22;;;;;;;28.33;7.30;;;;;;;;;;5054672;28;20048;-70
2021/12/19 09:17:48;;;;;;;25.57;7.33;;;;;;;;;;5070767;28;20056;-70
2021/12/19 09:20:15;;;;;;;34.77;9.33;;;;;;;;;;5072695;28;20043;-70
2021/12/19 09:22:41;;;;;;;25.20;6.60;;;;;;;;;;5062595;28;20054;-70
2021/12/19 09:25:08;;;;;;;17.30;6.30;;;;;;;;;;5060585;28;20048;-70
2021/12/19 09:27:34;;;;;;;23.33;6.70;;;;;;;;;;5061262;28;20048;-70
2021/12/19 09:30:00;;;;;;;26.83;6.97;;;;;;;;;;5062174;28;20042;-70
2021/12/19 09:32:27;;;;;;;26.23;6.90;;;;;;;;;;5059631;28;20055;-70
2021/12/19 09:34:53;;;;;;;24.53;5.93;;;;;;;;;;5059464;28;20101;-70
2021/12/19 09:37:19;;;;;;;28.37;7.43;;;;;;;;;;5077833;28;20113;-70
2021/12/19 09:39:46;;;;;;;23.07;7.20;;;;;;;;;;5082611;28;20043;-70
2021/12/19 09:42:15;;;;;;;26.93;7.87;;;;;;;;;;5067432;28;20053;-70
2021/12/19 09:44:41;;;;;;;32.00;7.87;;;;;;;;;;5057594;28;20574;-70
2021/12/19 09:47:08;;;;;;;26.13;6.50;;;;;;;;;;5083769;28;20754;-70
2021/12/19 09:49:35;;;;;;;20.17;5.93;;;;;;;;;;5065999;28;20074;-70
2021/12/19 09:52:02;;;;;;;22.93;5.87;;;;;;;;;;5068465;28;20131;-70
2021/12/19 09:54:28;;;;;;;25.70;6.20;;;;;;;;;;5084963;28;20104;-70
2021/12/19 09:56:54;;;;;;;27.70;6.27;;;;;;;;;;5070725;28;20516;-70
2021/12/19 09:59:21;;;;;;;17.80;5.97;;;;;;;;;;5061147;28;20086;-70
2021/12/19 10:01:48;;;;;;;22.90;6.13;;;;;;;;;;5080048;28;20040;-70
2021/12/19 10:04:36;;;;;;;18.97;6.40;;;;;;;;;;5079140;28;20043;-70
2021/12/19 10:07:07;;;;;;;29.07;7.00;;;;;;;;;;5051180;28;20102;-70
2021/12/19 10:09:33;;;;;;;17.00;4.40;;;;;;;;;;5067018;28;20092;-70
2021/12/19 10:12:22;;;;;;;28.70;5.13;;;;;;;;;;5063694;28;20032;-70
2021/12/19 10:14:48;;;;;;;20.80;4.87;;;;;;;;;;5081291;28;20060;-70
2021/12/19 10:17:18;;;;;;;20.03;5.90;;;;;;;;;;5059154;28;20045;-70
2021/12/19 10:19:45;;;;;;;21.77;5.87;;;;;;;;;;5076645;28;20127;-71
2021/12/19 10:22:30;;;;;;;22.73;5.93;;;;;;;;;;5079783;28;20044;-71
2021/12/19 10:24:58;;;;;;;26.10;6.53;;;;;;;;;;5059204;28;20083;-70
2021/12/19 10:27:31;;;;;;;20.63;4.57;;;;;;;;;;5059417;28;20052;-70
2021/12/19 10:29:57;;;;;;;18.45;5.00;;;;;;;;;;5059155;28;20048;-70
2021/12/19 10:32:23;;;;;;;20.00;4.87;;;;;;;;;;5072123;28;20045;-70
2021/12/19 10:34:49;;;;;;;26.90;5.47;;;;;;;;;;5085570;28;20691;-70
2021/12/19 10:37:31;;;;;;;30.63;4.93;;;;;;;;;;5061661;28;20047;-70
2021/12/19 10:39:59;;;;;;;17.83;4.17;;;;;;;;;;5063623;28;20131;-70
2021/12/19 10:42:33;;;;;;;26.73;4.67;;;;;;;;;;5059643;28;20075;-70
2021/12/19 10:48:29;;;;;;;17.13;4.20;;;;;;;;;;4987616;28;20098;-70
2021/12/19 10:50:58;;;;;;;18.53;4.63;;;;;;;;;;5065854;28;20093;-70
2021/12/19 10:53:44;;;;;;;18.13;4.17;;;;;;;;;;5086547;28;20077;-70
2021/12/19 10:56:31;;;;;;;22.30;4.73;;;;;;;;;;5073093;28;20127;-71
2021/12/19 10:58:58;;;;;;;20.37;4.77;;;;;;;;;;5067201;28;20059;-70
2021/12/19 11:01:29;;;;;;;20.80;4.63;;;;;;;;;;5090040;28;20131;-71
2021/12/19 11:03:55;;;;;;;12.07;3.87;;;;;;;;;;5089888;28;20052;-70
2021/12/19 11:06:24;;;;;;;18.10;4.20;;;;;;;;;;5086821;28;20052;-70
2021/12/19 11:08:51;;;;;;;16.13;3.80;;;;;;;;;;5084236;28;20039;-70
2021/12/19 11:11:39;;;;;;;15.00;4.00;;;;;;;;;;5065351;28;20052;-70
2021/12/19 11:14:05;;;;;;;19.10;4.27;;;;;;;;;;5082468;28;20055;-70
2021/12/19 11:16:31;;;;;;;18.87;5.40;;;;;;;;;;5083344;28;20513;-70
2021/12/19 11:18:57;;;;;;;19.00;4.13;;;;;;;;;;5088235;28;20060;-70
2021/12/19 11:21:23;;;;;;;15.07;4.60;;;;;;;;;;5065084;28;20036;-70
2021/12/19 11:23:49;;;;;;;19.67;4.13;;;;;;;;;;5071790;28;20036;-70
2021/12/19 11:26:20;;;;;;;17.57;4.50;;;;;;;;;;5069251;28;20131;-70
2021/12/19 11:28:47;;;;;;;16.07;4.37;;;;;;;;;;5085212;28;20060;-70
2021/12/19 11:31:13;;;;;;;15.67;4.77;;;;;;;;;;5057904;28;20036;-70
2021/12/19 11:34:00;;;;;;;22.10;4.47;;;;;;;;;;5083346;28;20044;-70
2021/12/19 11:36:28;;;;;;;23.53;4.43;;;;;;;;;;5068981;28;20522;-70
2021/12/19 11:38:54;;;;;;;28.20;5.33;;;;;;;;;;5086470;28;20050;-71
2021/12/19 11:41:20;;;;;;;23.73;4.73;;;;;;;;;;5081931;28;20776;-70
2021/12/19 11:43:49;;;;;;;25.70;4.80;;;;;;;;;;5059799;28;20048;-70
2021/12/19 11:46:23;;;;;;;20.67;5.10;;;;;;;;;;5083413;28;20044;-70
2021/12/19 11:49:08;;;;;;;22.80;5.40;;;;;;;;;;5082549;28;20051;-70
2021/12/19 11:51:34;;;;;;;29.00;5.37;;;;;;;;;;5082328;28;20043;-70
2021/12/19 11:54:11;;;;;;;18.93;4.93;;;;;;;;;;5086393;28;20037;-70
2021/12/19 11:56:37;;;;;;;30.73;5.33;;;;;;;;;;5057651;28;20044;-70
2021/12/19 11:59:17;;;;;;;20.97;4.70;;;;;;;;;;5063810;28;20122;-70
2021/12/19 12:01:44;;;;;;;18.67;5.30;;;;;;;;;;5063365;28;20045;-70
2021/12/19 12:04:12;;;;;;;26.63;6.37;;;;;;;;;;5079598;28;20067;-70
2021/12/19 12:06:54;;;;;;;24.93;4.93;;;;;;;;;;5078939;28;20040;-70
2021/12/19 12:09:24;;;;;;;17.83;4.70;;;;;;;;;;5081276;28;20048;-70
2021/12/19 12:11:59;;;;;;;22.17;6.10;;;;;;;;;;5081962;28;20044;-70
2021/12/19 12:14:31;;;;;;;20.83;4.57;;;;;;;;;;5080117;28;20090;-69
2021/12/19 12:16:59;;;;;;;20.20;4.00;;;;;;;;;;5078641;28;20053;-70
2021/12/19 12:19:44;;;;;;;24.60;4.47;;;;;;;;;;5077288;28;20055;-70
2021/12/19 12:22:23;;;;;;;22.13;4.17;;;;;;;;;;5079396;28;20436;-70
2021/12/19 12:25:08;;;;;;;18.80;4.03;;;;;;;;;;5060231;28;20131;-70
2021/12/19 12:27:35;;;;;;;22.57;4.17;;;;;;;;;;5078297;28;20048;-70
2021/12/19 12:30:03;;;;;;;24.40;4.13;;;;;;;;;;5071501;28;20053;-69
2021/12/19 12:32:29;;;;;;;21.00;4.10;;;;;;;;;;5070083;28;20141;-69
2021/12/19 12:34:55;;;;;;;18.00;4.10;;;;;;;;;;5051618;28;20040;-69
2021/12/19 12:37:22;;;;;;;14.57;4.47;;;;;;;;;;5069593;28;20041;-70
2021/12/19 12:39:48;;;;;;;15.27;4.77;;;;;;;;;;5088396;28;20561;-69
2021/12/19 12:42:16;;;;;;;22.10;5.50;;;;;;;;;;5068109;28;20101;-69
2021/12/19 12:44:43;;;;;;;22.57;4.83;;;;;;;;;;5068982;28;20040;-69
2021/12/19 12:47:09;;;;;;;21.87;4.20;;;;;;;;;;5083685;28;20090;-69
2021/12/19 12:49:35;;;;;;;18.27;4.03;;;;;;;;;;5060393;28;20047;-69
2021/12/19 12:52:03;;;;;;;14.60;3.40;;;;;;;;;;5062870;28;20070;-69
2021/12/19 12:54:36;;;;;;;18.93;3.93;;;;;;;;;;5066070;28;20122;-69
2021/12/19 12:57:08;;;;;;;21.92;4.18;;;;;;;;;;5060265;28;20442;-69
2021/12/19 12:59:38;;;;;;;15.37;3.97;;;;;;;;;;5066472;28;20059;-69
2021/12/19 13:02:15;;;;;;;19.30;3.70;;;;;;;;;;5088337;28;20048;-69
2021/12/19 13:04:42;;;;;;;21.00;4.13;;;;;;;;;;5081661;28;20072;-69
2021/12/19 13:07:09;;;;;;;16.83;4.27;;;;;;;;;;5085486;28;20044;-69
2021/12/19 13:09:42;;;;;;;25.20;4.60;;;;;;;;;;5070195;28;20036;-69
2021/12/19 13:12:21;;;;;;;17.37;3.80;;;;;;;;;;5080986;28;20102;-70
2021/12/19 13:14:52;;;;;;;17.60;3.87;;;;;;;;;;5061671;28;20117;-70
2021/12/19 13:17:28;;;;;;;25.80;4.80;;;;;;;;;;5083760;28;20060;-69
2021/12/19 13:19:57;;;;;;;25.33;3.70;;;;;;;;;;5066800;28;20126;-69
2021/12/19 13:22:23;;;;;;;21.40;4.10;;;;;;;;;;5085080;28;20048;-69
2021/12/19 13:24:50;;;;;;;23.63;4.70;;;;;;;;;;5084781;28;20048;-69
2021/12/19 13:27:21;;;;;;;15.87;3.53;;;;;;;;;;5088471;28;20035;-69
2021/12/19 13:30:05;;;;;;;18.57;3.47;;;;;;;;;;5088037;28;20055;-70
2021/12/19 13:32:39;;;;;;;14.13;3.53;;;;;;;;;;5070667;28;20090;-69
2021/12/19 13:35:05;;;;;;;;;;;;;;;;;;5069627;28;20062;-69
2021/12/19 13:37:33;;;;;;;26.17;4.10;;;;;;;;;;5076947;28;20018;-69
2021/12/19 13:40:08;;;;;;;23.23;4.00;;;;;;;;;;5067430;28;20151;-69
2021/12/19 13:42:39;;;;;;;22.50;4.60;;;;;;;;;;5073608;28;20440;-69
2021/12/19 13:45:23;;;;;;;19.93;4.20;;;;;;;;;;5066898;28;20048;-69
2021/12/19 13:47:49;;;;;;;16.33;3.57;;;;;;;;;;5083420;28;20498;-69
2021/12/19 13:50:16;;;;;;;25.33;3.83;;;;;;;;;;5061815;28;20395;-69
2021/12/19 13:52:42;;;;;;;18.23;3.83;;;;;;;;;;5066668;28;20094;-68
2021/12/19 13:55:14;;;;;;;15.73;3.17;;;;;;;;;;5067435;28;20049;-68
2021/12/19 13:57:40;;;;;;;23.60;3.90;;;;;;;;;;5066945;28;20049;-69
2021/12/19 14:00:11;;;;;;;22.53;3.30;;;;;;;;;;5037394;28;20110;-68
2021/12/19 14:02:38;;;;;;;15.97;3.33;;;;;;;;;;5069890;28;20414;-69
2021/12/19 14:05:24;;;;;;;27.20;4.67;;;;;;;;;;5062393;28;20429;-68
2021/12/19 14:07:50;;;;;;;23.73;4.30;;;;;;;;;;5088081;28;20048;-68
2021/12/19 14:10:23;;;;;;;21.10;4.50;;;;;;;;;;5061518;28;20581;-68
2021/12/19 14:13:05;;;;;;;32.40;5.20;;;;;;;;;;5069939;28;20080;-68
2021/12/19 14:15:32;;;;;;;27.80;5.77;;;;;;;;;;5085171;28;20052;-68
2021/12/19 14:17:58;;;;;;;31.53;4.90;;;;;;;;;;5069758;28;20052;-69
2021/12/19 14:20:36;;;;;;;24.97;4.60;;;;;;;;;;5068180;28;20131;-69
2021/12/19 14:23:16;;;;;;;29.67;4.60;;;;;;;;;;5075455;28;20047;-69
2021/12/19 14:25:42;;;;;;;35.03;5.07;;;;;;;;;;5067890;28;20044;-68
2021/12/19 14:28:37;;;;;;;24.93;4.40;;;;;;;;;;5068391;28;20041;-69
2021/12/19 14:31:05;;;;;;;31.93;4.33;;;;;;;;;;5066352;28;20047;-68
2021/12/19 14:33:33;;;;;;;27.83;4.97;;;;;;;;;;5058800;28;20049;-68
2021/12/19 14:35:59;;;;;;;27.70;4.07;;;;;;;;;;5060769;28;20048;-69
2021/12/19 14:38:26;;;;;;;33.80;4.97;;;;;;;;;;5069965;28;20151;-68
2021/12/19 14:40:57;;;;;;;29.67;5.87;;;;;;;;;;5066365;28;20435;-68
2021/12/19 14:43:23;;;;;;;31.43;5.37;;;;;;;;;;5061184;28;20037;-69
2021/12/19 14:45:51;;;;;;;27.97;3.93;;;;;;;;;;5087735;28;20052;-68
2021/12/19 14:48:28;;;;;;;20.20;4.13;;;;;;;;;;5079608;28;20072;-69
2021/12/19 14:50:55;;;;;;;25.17;3.93;;;;;;;;;;5080672;28;20039;-69
2021/12/19 14:53:48;;;;;;;22.30;4.23;;;;;;;;;;5079448;28;20127;-69
2021/12/19 14:56:20;;;;;;;24.67;4.67;;;;;;;;;;5056758;28;20047;-69
2021/12/19 14:58:50;;;;;;;22.57;4.33;;;;;;;;;;5087872;28;20044;-68
2021/12/19 15:01:17;;;;;;;30.57;4.37;;;;;;;;;;5079709;28;20040;-68
2021/12/19 15:03:58;;;;;;;22.70;3.93;;;;;;;;;;5087350;28;20097;-68
2021/12/19 15:06:25;;;;;;;28.90;4.87;;;;;;;;;;5066530;28;20045;-69
2021/12/19 15:08:53;;;;;;;23.17;4.37;;;;;;;;;;5079735;28;20051;-68
2021/12/19 15:11:19;;;;;;;30.27;3.73;;;;;;;;;;5045259;28;20082;-68
2021/12/19 15:13:45;;;;;;;26.47;5.27;;;;;;;;;;5066051;28;20055;-68
2021/12/19 15:16:11;;;;;;;34.97;5.07;;;;;;;;;;5053060;28;20052;-68
2021/12/19 15:18:37;;;;;;;27.10;4.20;;;;;;;;;;5079293;28;20056;-68
2021/12/19 15:21:03;;;;;;;29.30;3.90;;;;;;;;;;5065613;28;20047;-68
2021/12/19 15:23:30;;;;;;;18.57;4.60;;;;;;;;;;5076702;28;20166;-68
2021/12/19 15:25:56;;;;;;;29.33;4.70;;;;;;;;;;5085060;28;20044;-68
2021/12/19 15:28:24;;;;;;;30.13;5.37;;;;;;;;;;5083675;28;20086;-68
2021/12/19 15:30:51;;;;;;;27.37;4.43;;;;;;;;;;5042994;28;20060;-69
2021/12/19 15:33:17;;;;;;;31.87;4.20;;;;;;;;;;5069678;28;20090;-69
2021/12/19 15:35:47;;;;;;;26.50;5.87;;;;;;;;;;5088571;28;20055;-68
2021/12/19 15:38:13;;;;;;;28.03;4.57;;;;;;;;;;5072447;28;20033;-68
2021/12/19 15:40:39;;;;;;;19.20;4.63;;;;;;;;;;5065480;28;20047;-68
2021/12/19 15:43:06;;;;;;;33.13;5.27;;;;;;;;;;5091874;28;20040;-68
2021/12/19 15:45:32;;;;;;;27.93;3.93;;;;;;;;;;5091879;28;20127;-68
2021/12/19 15:47:58;;;;;;;22.07;4.07;;;;;;;;;;5080408;28;20052;-69